sensor_id;sensor_type;location;lat;lon;timestamp;pressure;altitude;pressure_sealevel;temperature;humidity
31062;BME280;17724;53.546;9.974;2022-09-21T00:01:43;102533.94;;;13.11;86.18
31062;BME280;17724;53.546;9.974;2022-09-21T00:05:43;102538.63;;;13.11;85.88
31062;BME280;17724;53.546;9.974;2022-09-21T00:09:44;102541.63;;;13.09;86.15
31062;BME280;17724;53.546;9.974;2022-09-21T00:13:44;102542.75;;;12.90;86.42
31062;BME280;17724;53.546;9.974;2022-09-21T00:17:46;102534.28;;;12.85;86.30
31062;BME280;17724;53.546;9.974;2022-09-21T00:21:53;102549.09;;;12.90;86.69
31062;BME280;17724;53.546;9.974;2022-09-21T00:26:04;102551.09;;;12.83;87.05
31062;BME280;17724;53.546;9.974;2022-09-21T00:30:05;102554.38;;;12.92;87.12
31062;BME280;17724;53.546;9.974;2022-09-21T00:34:05;102545.03;;;12.74;87.97
31062;BME280;17724;53.546;9.974;2022-09-21T00:38:06;102562.44;;;12.75;88.91
31062;BME280;17724;53.546;9.974;2022-09-21T00:42:17;102550.31;;;12.76;88.47
31062;BME280;17724;53.546;9.974;2022-09-21T00:46:25;102560.28;;;12.58;89.47
31062;BME280;17724;53.546;9.974;2022-09-21T00:50:26;102560.06;;;12.60;89.53
31062;BME280;17724;53.546;9.974;2022-09-21T00:54:30;102551.84;;;12.72;89.30
31062;BME280;17724;53.546;9.974;2022-09-21T00:58:38;102547.56;;;12.76;89.12
31062;BME280;17724;53.546;9.974;2022-09-21T01:02:39;102554.41;;;12.73;89.73
31062;BME280;17724;53.546;9.974;2022-09-21T01:06:40;102555.84;;;12.76;90.20
31062;BME280;17724;53.546;9.974;2022-09-21T01:10:54;102560.63;;;12.69;90.12
31062;BME280;17724;53.546;9.974;2022-09-21T01:15:09;102562.19;;;12.76;89.79
31062;BME280;17724;53.546;9.974;2022-09-21T01:23:35;102563.66;;;12.61;91.07
31062;BME280;17724;53.546;9.974;2022-09-21T01:32:43;102570.78;;;12.68;90.07
31062;BME280;17724;53.546;9.974;2022-09-21T01:36:46;102572.31;;;12.64;90.32
31062;BME280;17724;53.546;9.974;2022-09-21T01:40:51;102575.22;;;12.51;90.64
31062;BME280;17724;53.546;9.974;2022-09-21T01:44:57;102567.78;;;12.51;90.13
31062;BME280;17724;53.546;9.974;2022-09-21T01:49:04;102570.09;;;12.54;89.96
31062;BME280;17724;53.546;9.974;2022-09-21T01:53:17;102577.44;;;12.42;90.10
31062;BME280;17724;53.546;9.974;2022-09-21T01:57:24;102575.28;;;12.44;90.41
31062;BME280;17724;53.546;9.974;2022-09-21T02:01:28;102584.59;;;12.50;90.00
31062;BME280;17724;53.546;9.974;2022-09-21T02:05:30;102576.75;;;12.47;90.30
31062;BME280;17724;53.546;9.974;2022-09-21T02:09:31;102572.38;;;12.39;90.43
31062;BME280;17724;53.546;9.974;2022-09-21T02:13:35;102568.47;;;12.47;90.61
31062;BME280;17724;53.546;9.974;2022-09-21T02:17:53;102575.78;;;12.41;90.46
31062;BME280;17724;53.546;9.974;2022-09-21T02:22:10;102574.25;;;12.45;90.73
31062;BME280;17724;53.546;9.974;2022-09-21T02:26:18;102582.72;;;12.44;91.11
31062;BME280;17724;53.546;9.974;2022-09-21T02:30:23;102581.03;;;12.43;91.12
31062;BME280;17724;53.546;9.974;2022-09-21T02:34:35;102579.41;;;12.35;91.11
31062;BME280;17724;53.546;9.974;2022-09-21T02:38:49;102583.72;;;12.31;91.32
31062;BME280;17724;53.546;9.974;2022-09-21T02:42:55;102588.63;;;12.29;91.63
31062;BME280;17724;53.546;9.974;2022-09-21T02:47:03;102578.38;;;11.86;93.24
31062;BME280;17724;53.546;9.974;2022-09-21T02:51:13;102586.03;;;11.77;95.57
31062;BME280;17724;53.546;9.974;2022-09-21T02:55:16;102587.31;;;12.06;94.73
31062;BME280;17724;53.546;9.974;2022-09-21T02:59:17;102584.56;;;12.06;94.26
31062;BME280;17724;53.546;9.974;2022-09-21T03:03:20;102587.31;;;12.06;94.23
31062;BME280;17724;53.546;9.974;2022-09-21T03:07:22;102592.19;;;12.04;93.79
31062;BME280;17724;53.546;9.974;2022-09-21T03:11:22;102598.13;;;12.08;93.35
31062;BME280;17724;53.546;9.974;2022-09-21T03:15:22;102601.34;;;12.05;93.41
31062;BME280;17724;53.546;9.974;2022-09-21T03:19:25;102605.94;;;12.11;92.59
31062;BME280;17724;53.546;9.974;2022-09-21T03:23:27;102604.00;;;12.18;92.23
31062;BME280;17724;53.546;9.974;2022-09-21T03:27:28;102602.50;;;12.16;92.11
31062;BME280;17724;53.546;9.974;2022-09-21T03:31:28;102596.72;;;11.99;92.73
31062;BME280;17724;53.546;9.974;2022-09-21T03:35:29;102608.97;;;12.03;92.63
31062;BME280;17724;53.546;9.974;2022-09-21T03:39:29;102608.16;;;12.02;92.49
31062;BME280;17724;53.546;9.974;2022-09-21T03:43:30;102605.38;;;12.02;92.65
31062;BME280;17724;53.546;9.974;2022-09-21T03:47:31;102602.78;;;12.07;92.40
31062;BME280;17724;53.546;9.974;2022-09-21T03:51:31;102606.06;;;11.98;93.02
31062;BME280;17724;53.546;9.974;2022-09-21T03:55:32;102606.28;;;11.96;93.15
31062;BME280;17724;53.546;9.974;2022-09-21T03:59:32;102617.50;;;12.01;92.79
31062;BME280;17724;53.546;9.974;2022-09-21T04:03:34;102613.69;;;11.96;92.64
31062;BME280;17724;53.546;9.974;2022-09-21T04:07:35;102616.97;;;11.86;93.02
31062;BME280;17724;53.546;9.974;2022-09-21T04:11:36;102612.28;;;11.87;93.31
31062;BME280;17724;53.546;9.974;2022-09-21T04:15:37;102615.47;;;11.83;93.18
31062;BME280;17724;53.546;9.974;2022-09-21T04:19:38;102613.41;;;11.72;93.31
31062;BME280;17724;53.546;9.974;2022-09-21T04:23:38;102615.88;;;11.80;93.47
31062;BME280;17724;53.546;9.974;2022-09-21T04:27:40;102602.34;;;11.86;93.49
31062;BME280;17724;53.546;9.974;2022-09-21T04:31:41;102607.63;;;11.87;93.71
31062;BME280;17724;53.546;9.974;2022-09-21T04:35:42;102604.03;;;11.80;93.42
31062;BME280;17724;53.546;9.974;2022-09-21T04:39:42;102608.28;;;11.76;93.58
31062;BME280;17724;53.546;9.974;2022-09-21T04:43:47;102604.47;;;11.83;93.64
31062;BME280;17724;53.546;9.974;2022-09-21T04:47:47;102608.81;;;11.59;94.70
31062;BME280;17724;53.546;9.974;2022-09-21T04:51:48;102611.03;;;11.44;96.67
31062;BME280;17724;53.546;9.974;2022-09-21T04:55:48;102610.47;;;11.67;98.05
31062;BME280;17724;53.546;9.974;2022-09-21T04:59:49;102622.56;;;11.66;99.29
31062;BME280;17724;53.546;9.974;2022-09-21T05:03:49;102622.47;;;11.79;98.75
31062;BME280;17724;53.546;9.974;2022-09-21T05:07:50;102628.63;;;11.81;98.29
31062;BME280;17724;53.546;9.974;2022-09-21T05:11:50;102636.69;;;11.76;98.24
31062;BME280;17724;53.546;9.974;2022-09-21T05:15:51;102633.41;;;11.16;100.00
31062;BME280;17724;53.546;9.974;2022-09-21T05:19:51;102638.88;;;11.29;100.00
31062;BME280;17724;53.546;9.974;2022-09-21T05:23:55;102649.00;;;11.29;100.00
31062;BME280;17724;53.546;9.974;2022-09-21T05:27:56;102640.63;;;11.62;100.00
31062;BME280;17724;53.546;9.974;2022-09-21T05:32:06;102642.03;;;11.71;100.00
31062;BME280;17724;53.546;9.974;2022-09-21T05:36:35;102643.94;;;11.77;100.00
31062;BME280;17724;53.546;9.974;2022-09-21T05:40:38;102649.28;;;11.66;100.00
31062;BME280;17724;53.546;9.974;2022-09-21T05:44:39;102655.22;;;11.18;100.00
31062;BME280;17724;53.546;9.974;2022-09-21T05:48:42;102655.06;;;11.06;100.00
31062;BME280;17724;53.546;9.974;2022-09-21T06:05:40;102651.63;;;11.17;100.00
31062;BME280;17724;53.546;9.974;2022-09-21T06:09:42;102658.84;;;11.12;100.00
31062;BME280;17724;53.546;9.974;2022-09-21T06:13:43;102659.00;;;11.30;100.00
31062;BME280;17724;53.546;9.974;2022-09-21T06:17:43;102657.75;;;11.71;100.00
31062;BME280;17724;53.546;9.974;2022-09-21T06:21:44;102660.84;;;11.88;100.00
31062;BME280;17724;53.546;9.974;2022-09-21T06:25:52;102668.84;;;11.57;100.00
31062;BME280;17724;53.546;9.974;2022-09-21T06:29:53;102659.00;;;11.30;100.00
31062;BME280;17724;53.546;9.974;2022-09-21T06:33:54;102665.53;;;11.35;100.00
31062;BME280;17724;53.546;9.974;2022-09-21T06:38:05;102665.72;;;11.41;100.00
31062;BME280;17724;53.546;9.974;2022-09-21T06:42:06;102671.63;;;11.51;100.00
31062;BME280;17724;53.546;9.974;2022-09-21T06:46:07;102666.44;;;11.68;100.00
31062;BME280;17724;53.546;9.974;2022-09-21T06:50:07;102674.44;;;11.76;100.00
31062;BME280;17724;53.546;9.974;2022-09-21T06:54:08;102674.38;;;11.96;100.00
31062;BME280;17724;53.546;9.974;2022-09-21T06:58:08;102667.03;;;12.15;100.00
31062;BME280;17724;53.546;9.974;2022-09-21T07:02:09;102668.19;;;12.00;100.00
31062;BME280;17724;53.546;9.974;2022-09-21T07:06:11;102678.50;;;12.12;100.00
31062;BME280;17724;53.546;9.974;2022-09-21T07:10:14;102692.38;;;12.30;100.00
31062;BME280;17724;53.546;9.974;2022-09-21T07:14:15;102684.66;;;12.14;100.00
31062;BME280;17724;53.546;9.974;2022-09-21T07:18:15;102684.78;;;12.25;100.00
31062;BME280;17724;53.546;9.974;2022-09-21T07:22:16;102689.66;;;12.23;100.00
31062;BME280;17724;53.546;9.974;2022-09-21T07:26:16;102690.47;;;12.30;99.94
31062;BME280;17724;53.546;9.974;2022-09-21T07:30:17;102696.31;;;12.41;100.00
31062;BME280;17724;53.546;9.974;2022-09-21T07:34:17;102689.03;;;12.53;100.00
31062;BME280;17724;53.546;9.974;2022-09-21T07:38:18;102693.22;;;12.80;99.33
31062;BME280;17724;53.546;9.974;2022-09-21T07:42:19;102698.00;;;12.92;98.46
31062;BME280;17724;53.546;9.974;2022-09-21T07:46:21;102699.22;;;12.96;97.47
31062;BME280;17724;53.546;9.974;2022-09-21T07:50:22;102695.19;;;13.17;96.85
31062;BME280;17724;53.546;9.974;2022-09-21T07:54:22;102703.28;;;13.37;96.06
31062;BME280;17724;53.546;9.974;2022-09-21T07:58:23;102700.88;;;13.59;94.70
31062;BME280;17724;53.546;9.974;2022-09-21T08:02:42;102695.72;;;13.62;93.64
31062;BME280;17724;53.546;9.974;2022-09-21T08:06:42;102697.31;;;14.00;92.75
31062;BME280;17724;53.546;9.974;2022-09-21T08:10:42;102685.78;;;14.03;91.09
31062;BME280;17724;53.546;9.974;2022-09-21T08:14:43;102701.94;;;14.06;91.25
31062;BME280;17724;53.546;9.974;2022-09-21T08:18:44;102701.56;;;14.44;90.46
31062;BME280;17724;53.546;9.974;2022-09-21T08:22:44;102699.34;;;14.65;89.30
31062;BME280;17724;53.546;9.974;2022-09-21T08:26:45;102708.97;;;14.86;88.11
31062;BME280;17724;53.546;9.974;2022-09-21T08:30:45;102707.88;;;14.98;87.13
31062;BME280;17724;53.546;9.974;2022-09-21T08:34:46;102712.56;;;15.10;85.75
31062;BME280;17724;53.546;9.974;2022-09-21T08:38:46;102713.75;;;15.25;85.49
31062;BME280;17724;53.546;9.974;2022-09-21T08:42:52;102709.41;;;15.30;84.64
31062;BME280;17724;53.546;9.974;2022-09-21T08:47:05;102710.22;;;15.42;84.22
31062;BME280;17724;53.546;9.974;2022-09-21T08:51:14;102708.72;;;15.74;81.87
31062;BME280;17724;53.546;9.974;2022-09-21T08:55:18;102716.16;;;15.86;82.28
31062;BME280;17724;53.546;9.974;2022-09-21T08:59:19;102710.72;;;16.36;80.93
31062;BME280;17724;53.546;9.974;2022-09-21T09:07:53;102712.34;;;16.99;77.22
31062;BME280;17724;53.546;9.974;2022-09-21T09:16:57;102716.78;;;17.39;74.98
31062;BME280;17724;53.546;9.974;2022-09-21T09:21:12;102719.97;;;17.92;73.18
31062;BME280;17724;53.546;9.974;2022-09-21T09:25:20;102712.56;;;18.03;71.02
31062;BME280;17724;53.546;9.974;2022-09-21T09:29:30;102722.53;;;17.98;69.39
31062;BME280;17724;53.546;9.974;2022-09-21T09:37:49;102713.56;;;17.47;69.75
31062;BME280;17724;53.546;9.974;2022-09-21T09:46:31;102718.44;;;17.18;70.63
31062;BME280;17724;53.546;9.974;2022-09-21T09:50:36;102718.63;;;17.12;71.09
31062;BME280;17724;53.546;9.974;2022-09-21T09:54:38;102715.53;;;16.91;70.34
31062;BME280;17724;53.546;9.974;2022-09-21T09:58:46;102714.59;;;17.03;70.71
31062;BME280;17724;53.546;9.974;2022-09-21T10:02:54;102719.38;;;17.07;70.28
31062;BME280;17724;53.546;9.974;2022-09-21T10:06:54;102705.41;;;17.02;69.72
31062;BME280;17724;53.546;9.974;2022-09-21T10:10:55;102705.75;;;17.06;69.80
31062;BME280;17724;53.546;9.974;2022-09-21T10:14:56;102706.34;;;16.91;68.51
31062;BME280;17724;53.546;9.974;2022-09-21T10:19:00;102711.47;;;16.99;69.68
31062;BME280;17724;53.546;9.974;2022-09-21T10:23:00;102708.56;;;16.89;68.90
31062;BME280;17724;53.546;9.974;2022-09-21T10:27:14;102700.47;;;16.87;68.02
31062;BME280;17724;53.546;9.974;2022-09-21T10:31:18;102702.50;;;16.92;67.66
31062;BME280;17724;53.546;9.974;2022-09-21T10:35:21;102689.69;;;16.91;67.79
31062;BME280;17724;53.546;9.974;2022-09-21T10:39:28;102689.53;;;16.81;65.16
31062;BME280;17724;53.546;9.974;2022-09-21T10:43:35;102690.66;;;16.80;65.39
31062;BME280;17724;53.546;9.974;2022-09-21T10:47:45;102690.38;;;16.81;64.61
31062;BME280;17724;53.546;9.974;2022-09-21T10:51:47;102680.59;;;16.79;63.54
31062;BME280;17724;53.546;9.974;2022-09-21T10:56:07;102678.56;;;16.91;65.39
31062;BME280;17724;53.546;9.974;2022-09-21T11:04:27;102675.22;;;16.89;64.18
31062;BME280;17724;53.546;9.974;2022-09-21T11:08:34;102673.00;;;16.91;61.70
31062;BME280;17724;53.546;9.974;2022-09-21T11:17:16;102670.97;;;17.03;62.52
31062;BME280;17724;53.546;9.974;2022-09-21T11:21:31;102672.66;;;17.04;61.88
31062;BME280;17724;53.546;9.974;2022-09-21T11:25:59;102673.28;;;17.11;61.62
31062;BME280;17724;53.546;9.974;2022-09-21T12:04:18;102676.53;;;17.47;58.80
31062;BME280;17724;53.546;9.974;2022-09-21T12:08:50;102666.06;;;17.54;59.85
31062;BME280;17724;53.546;9.974;2022-09-21T12:12:59;102672.00;;;17.63;59.77
31062;BME280;17724;53.546;9.974;2022-09-21T12:17:19;102658.22;;;17.51;58.42
31062;BME280;17724;53.546;9.974;2022-09-21T12:21:27;102659.34;;;17.28;54.94
31062;BME280;17724;53.546;9.974;2022-09-21T12:25:36;102653.72;;;17.45;56.45
31062;BME280;17724;53.546;9.974;2022-09-21T12:29:44;102647.19;;;17.34;55.65
31062;BME280;17724;53.546;9.974;2022-09-21T12:33:53;102637.63;;;17.25;57.06
31062;BME280;17724;53.546;9.974;2022-09-21T12:38:07;102641.75;;;17.22;53.96
31062;BME280;17724;53.546;9.974;2022-09-21T12:42:37;102636.31;;;17.33;55.83
31062;BME280;17724;53.546;9.974;2022-09-21T12:46:45;102636.44;;;17.43;56.51
31062;BME280;17724;53.546;9.974;2022-09-21T12:50:54;102640.84;;;17.39;54.50
31062;BME280;17724;53.546;9.974;2022-09-21T12:55:04;102629.97;;;17.37;53.28
31062;BME280;17724;53.546;9.974;2022-09-21T13:03:29;102625.94;;;17.50;54.10
31062;BME280;17724;53.546;9.974;2022-09-21T13:07:37;102619.44;;;17.66;55.79
31062;BME280;17724;53.546;9.974;2022-09-21T13:12:08;102614.59;;;17.79;53.94
31062;BME280;17724;53.546;9.974;2022-09-21T13:16:29;102610.66;;;17.75;52.10
31062;BME280;17724;53.546;9.974;2022-09-21T13:20:36;102607.38;;;17.78;52.50
31062;BME280;17724;53.546;9.974;2022-09-21T13:24:37;102604.63;;;17.83;51.97
31062;BME280;17724;53.546;9.974;2022-09-21T13:32:55;102613.41;;;17.96;50.69
31062;BME280;17724;53.546;9.974;2022-09-21T13:49:29;102603.28;;;18.17;50.00
31062;BME280;17724;53.546;9.974;2022-09-21T13:53:33;102596.22;;;18.05;49.48
31062;BME280;17724;53.546;9.974;2022-09-21T13:57:45;102582.91;;;18.12;50.58
31062;BME280;17724;53.546;9.974;2022-09-21T14:01:47;102583.50;;;18.19;50.75
31062;BME280;17724;53.546;9.974;2022-09-21T14:05:52;102578.81;;;18.25;50.01
31062;BME280;17724;53.546;9.974;2022-09-21T14:09:59;102580.69;;;18.14;47.67
31062;BME280;17724;53.546;9.974;2022-09-21T14:14:14;102573.22;;;18.19;47.06
31062;BME280;17724;53.546;9.974;2022-09-21T14:18:20;102573.59;;;18.33;48.57
31062;BME280;17724;53.546;9.974;2022-09-21T14:30:48;102575.56;;;18.38;49.61
31062;BME280;17724;53.546;9.974;2022-09-21T14:34:54;102568.09;;;18.43;50.49
31062;BME280;17724;53.546;9.974;2022-09-21T14:39:00;102562.25;;;18.45;49.62
31062;BME280;17724;53.546;9.974;2022-09-21T14:43:06;102561.75;;;18.53;50.73
31062;BME280;17724;53.546;9.974;2022-09-21T14:51:51;102559.19;;;18.46;50.25
31062;BME280;17724;53.546;9.974;2022-09-21T15:00:10;102542.81;;;18.55;50.45
31062;BME280;17724;53.546;9.974;2022-09-21T15:04:28;102536.66;;;18.48;48.18
31062;BME280;17724;53.546;9.974;2022-09-21T15:17:24;102543.09;;;18.59;50.95
31062;BME280;17724;53.546;9.974;2022-09-21T15:21:27;102540.03;;;18.55;49.82
31062;BME280;17724;53.546;9.974;2022-09-21T15:25:31;102531.06;;;18.48;49.15
31062;BME280;17724;53.546;9.974;2022-09-21T15:29:32;102533.66;;;18.60;49.25
31062;BME280;17724;53.546;9.974;2022-09-21T15:33:37;102531.69;;;18.60;48.64
31062;BME280;17724;53.546;9.974;2022-09-21T15:37:38;102535.81;;;18.48;48.52
31062;BME280;17724;53.546;9.974;2022-09-21T15:41:43;102528.31;;;18.53;49.80
31062;BME280;17724;53.546;9.974;2022-09-21T15:49:51;102529.31;;;18.37;49.20
31062;BME280;17724;53.546;9.974;2022-09-21T15:53:58;102508.38;;;18.29;50.54
31062;BME280;17724;53.546;9.974;2022-09-21T15:58:20;102525.44;;;18.43;50.06
31062;BME280;17724;53.546;9.974;2022-09-21T16:02:24;102523.22;;;18.40;50.29
31062;BME280;17724;53.546;9.974;2022-09-21T16:06:28;102519.56;;;18.34;49.67
31062;BME280;17724;53.546;9.974;2022-09-21T16:10:37;102524.25;;;18.29;49.54
31062;BME280;17724;53.546;9.974;2022-09-21T16:14:46;102526.75;;;18.25;49.44
31062;BME280;17724;53.546;9.974;2022-09-21T16:18:56;102522.78;;;18.16;50.74
31062;BME280;17724;53.546;9.974;2022-09-21T16:23:05;102515.78;;;18.08;50.70
31062;BME280;17724;53.546;9.974;2022-09-21T16:27:12;102522.44;;;18.07;51.22
31062;BME280;17724;53.546;9.974;2022-09-21T16:31:27;102520.53;;;18.13;51.75
31062;BME280;17724;53.546;9.974;2022-09-21T16:35:28;102522.72;;;18.06;52.12
31062;BME280;17724;53.546;9.974;2022-09-21T16:39:30;102530.78;;;18.07;52.73
31062;BME280;17724;53.546;9.974;2022-09-21T16:43:30;102528.22;;;17.95;53.27
31062;BME280;17724;53.546;9.974;2022-09-21T16:47:35;102530.13;;;17.95;52.58
31062;BME280;17724;53.546;9.974;2022-09-21T16:51:36;102530.56;;;17.77;50.82
31062;BME280;17724;53.546;9.974;2022-09-21T16:55:40;102541.16;;;17.80;51.91
31062;BME280;17724;53.546;9.974;2022-09-21T16:59:42;102534.28;;;17.87;51.00
31062;BME280;17724;53.546;9.974;2022-09-21T17:03:42;102530.63;;;17.87;51.65
31062;BME280;17724;53.546;9.974;2022-09-21T17:07:54;102535.34;;;17.86;50.41
31062;BME280;17724;53.546;9.974;2022-09-21T17:11:59;102543.19;;;17.89;50.49
31062;BME280;17724;53.546;9.974;2022-09-21T17:16:00;102539.53;;;17.84;50.93
31062;BME280;17724;53.546;9.974;2022-09-21T17:20:13;102543.94;;;17.80;52.01
31062;BME280;17724;53.546;9.974;2022-09-21T17:24:15;102540.00;;;17.76;52.05
31062;BME280;17724;53.546;9.974;2022-09-21T17:28:22;102542.44;;;17.72;52.26
31062;BME280;17724;53.546;9.974;2022-09-21T17:32:25;102539.34;;;17.68;53.31
31062;BME280;17724;53.546;9.974;2022-09-21T17:36:25;102542.63;;;17.60;53.22
31062;BME280;17724;53.546;9.974;2022-09-21T17:40:26;102537.88;;;17.61;52.63
31062;BME280;17724;53.546;9.974;2022-09-21T17:48:39;102531.38;;;17.50;52.35
31062;BME280;17724;53.546;9.974;2022-09-21T17:52:41;102533.59;;;17.48;52.39
31062;BME280;17724;53.546;9.974;2022-09-21T17:57:23;102539.34;;;17.41;52.88
31062;BME280;17724;53.546;9.974;2022-09-21T18:01:37;102532.91;;;17.36;52.92
31062;BME280;17724;53.546;9.974;2022-09-21T18:05:39;102553.41;;;17.30;53.57
31062;BME280;17724;53.546;9.974;2022-09-21T18:09:39;102538.16;;;17.32;53.68
31062;BME280;17724;53.546;9.974;2022-09-21T18:14:11;102551.41;;;17.25;54.35
31062;BME280;17724;53.546;9.974;2022-09-21T18:22:52;102551.56;;;17.13;55.03
31062;BME280;17724;53.546;9.974;2022-09-21T18:26:57;102547.34;;;17.11;55.38
31062;BME280;17724;53.546;9.974;2022-09-21T18:31:06;102549.25;;;17.05;55.40
31062;BME280;17724;53.546;9.974;2022-09-21T18:39:49;102552.53;;;17.02;57.33
31062;BME280;17724;53.546;9.974;2022-09-21T18:44:12;102557.56;;;17.05;58.84
31062;BME280;17724;53.546;9.974;2022-09-21T18:48:38;102550.25;;;16.99;57.90
31062;BME280;17724;53.546;9.974;2022-09-21T18:53:14;102560.16;;;16.90;58.61
31062;BME280;17724;53.546;9.974;2022-09-21T18:57:17;102557.84;;;16.82;58.27
31062;BME280;17724;53.546;9.974;2022-09-21T19:01:18;102559.44;;;16.78;58.48
31062;BME280;17724;53.546;9.974;2022-09-21T19:05:21;102552.97;;;16.72;58.66
31062;BME280;17724;53.546;9.974;2022-09-21T19:09:34;102554.25;;;16.64;59.69
31062;BME280;17724;53.546;9.974;2022-09-21T19:18:24;102559.47;;;16.61;60.49
31062;BME280;17724;53.546;9.974;2022-09-21T19:22:47;102558.81;;;16.54;60.11
31062;BME280;17724;53.546;9.974;2022-09-21T19:27:00;102563.25;;;16.55;60.30
31062;BME280;17724;53.546;9.974;2022-09-21T19:31:09;102560.97;;;16.51;60.76
31062;BME280;17724;53.546;9.974;2022-09-21T19:35:20;102561.41;;;16.43;61.62
31062;BME280;17724;53.546;9.974;2022-09-21T19:39:21;102559.41;;;16.39;62.01
31062;BME280;17724;53.546;9.974;2022-09-21T19:43:29;102559.59;;;16.32;63.05
31062;BME280;17724;53.546;9.974;2022-09-21T19:47:53;102571.28;;;16.34;63.00
31062;BME280;17724;53.546;9.974;2022-09-21T19:51:56;102572.63;;;16.32;62.06
31062;BME280;17724;53.546;9.974;2022-09-21T19:56:00;102574.75;;;16.24;63.24
31062;BME280;17724;53.546;9.974;2022-09-21T20:00:19;102569.63;;;16.16;64.09
31062;BME280;17724;53.546;9.974;2022-09-21T20:04:27;102572.91;;;16.13;65.49
31062;BME280;17724;53.546;9.974;2022-09-21T20:08:54;102570.56;;;16.05;65.50
31062;BME280;17724;53.546;9.974;2022-09-21T20:13:29;102578.19;;;15.98;65.01
31062;BME280;17724;53.546;9.974;2022-09-21T20:17:43;102581.81;;;15.98;65.41
31062;BME280;17724;53.546;9.974;2022-09-21T20:21:47;102575.84;;;15.90;65.84
31062;BME280;17724;53.546;9.974;2022-09-21T20:29:54;102573.97;;;15.79;66.41
31062;BME280;17724;53.546;9.974;2022-09-21T20:33:54;102580.34;;;15.79;64.95
31062;BME280;17724;53.546;9.974;2022-09-21T20:37:55;102579.50;;;15.79;64.92
31062;BME280;17724;53.546;9.974;2022-09-21T20:41:56;102574.63;;;15.69;65.20
31062;BME280;17724;53.546;9.974;2022-09-21T20:45:57;102578.75;;;15.66;65.46
31062;BME280;17724;53.546;9.974;2022-09-21T20:49:58;102585.47;;;15.70;66.02
31062;BME280;17724;53.546;9.974;2022-09-21T20:54:04;102590.56;;;15.62;66.65
31062;BME280;17724;53.546;9.974;2022-09-21T20:58:05;102573.06;;;15.61;66.55
31062;BME280;17724;53.546;9.974;2022-09-21T21:02:07;102573.22;;;15.55;66.09
31062;BME280;17724;53.546;9.974;2022-09-21T21:06:10;102581.03;;;15.58;66.43
31062;BME280;17724;53.546;9.974;2022-09-21T21:10:11;102579.88;;;15.53;66.99
31062;BME280;17724;53.546;9.974;2022-09-21T21:14:15;102578.59;;;15.44;66.98
31062;BME280;17724;53.546;9.974;2022-09-21T21:18:15;102577.44;;;15.28;67.44
31062;BME280;17724;53.546;9.974;2022-09-21T21:22:16;102580.44;;;15.27;68.11
31062;BME280;17724;53.546;9.974;2022-09-21T21:26:17;102584.81;;;15.23;68.64
31062;BME280;17724;53.546;9.974;2022-09-21T21:30:17;102587.94;;;15.26;68.79
31062;BME280;17724;53.546;9.974;2022-09-21T21:34:18;102589.13;;;15.31;69.35
31062;BME280;17724;53.546;9.974;2022-09-21T21:38:18;102597.25;;;15.20;69.20
31062;BME280;17724;53.546;9.974;2022-09-21T21:42:20;102576.78;;;15.10;69.46
31062;BME280;17724;53.546;9.974;2022-09-21T21:46:20;102589.91;;;15.14;69.18
31062;BME280;17724;53.546;9.974;2022-09-21T21:50:21;102583.28;;;15.03;70.05
31062;BME280;17724;53.546;9.974;2022-09-21T21:54:23;102581.50;;;14.97;70.13
31062;BME280;17724;53.546;9.974;2022-09-21T21:58:24;102582.28;;;15.21;70.22
31062;BME280;17724;53.546;9.974;2022-09-21T22:02:27;102576.03;;;15.14;70.28
31062;BME280;17724;53.546;9.974;2022-09-21T22:06:29;102571.38;;;15.03;70.47
31062;BME280;17724;53.546;9.974;2022-09-21T22:10:30;102579.28;;;15.11;70.40
31062;BME280;17724;53.546;9.974;2022-09-21T22:14:30;102577.88;;;15.09;69.75
31062;BME280;17724;53.546;9.974;2022-09-21T22:18:31;102583.63;;;15.07;70.19
31062;BME280;17724;53.546;9.974;2022-09-21T22:22:31;102579.09;;;15.01;70.44
31062;BME280;17724;53.546;9.974;2022-09-21T22:26:38;102576.06;;;15.02;70.28
31062;BME280;17724;53.546;9.974;2022-09-21T22:30:46;102580.22;;;14.88;71.40
31062;BME280;17724;53.546;9.974;2022-09-21T22:34:47;102583.19;;;14.98;71.13
31062;BME280;17724;53.546;9.974;2022-09-21T22:38:49;102586.06;;;15.03;71.25
31062;BME280;17724;53.546;9.974;2022-09-21T22:42:50;102588.16;;;14.96;71.84
31062;BME280;17724;53.546;9.974;2022-09-21T22:46:50;102578.63;;;14.92;72.31
31062;BME280;17724;53.546;9.974;2022-09-21T22:50:51;102585.25;;;14.91;71.94
31062;BME280;17724;53.546;9.974;2022-09-21T22:54:51;102584.66;;;14.89;72.57
31062;BME280;17724;53.546;9.974;2022-09-21T22:58:55;102582.75;;;14.78;73.58
31062;BME280;17724;53.546;9.974;2022-09-21T23:02:56;102573.22;;;14.86;73.44
31062;BME280;17724;53.546;9.974;2022-09-21T23:06:56;102572.25;;;14.80;74.04
31062;BME280;17724;53.546;9.974;2022-09-21T23:11:18;102566.63;;;14.63;74.24
31062;BME280;17724;53.546;9.974;2022-09-21T23:15:19;102563.75;;;14.70;74.00
31062;BME280;17724;53.546;9.974;2022-09-21T23:19:19;102563.88;;;14.51;74.37
31062;BME280;17724;53.546;9.974;2022-09-21T23:23:19;102558.81;;;14.60;73.68
31062;BME280;17724;53.546;9.974;2022-09-21T23:27:21;102559.53;;;14.56;73.86
31062;BME280;17724;53.546;9.974;2022-09-21T23:31:22;102557.72;;;14.38;74.31
31062;BME280;17724;53.546;9.974;2022-09-21T23:35:22;102547.47;;;14.26;74.98
31062;BME280;17724;53.546;9.974;2022-09-21T23:39:23;102549.78;;;14.29;74.76
31062;BME280;17724;53.546;9.974;2022-09-21T23:43:23;102543.50;;;14.34;74.67
31062;BME280;17724;53.546;9.974;2022-09-21T23:47:24;102542.41;;;14.23;75.16
31062;BME280;17724;53.546;9.974;2022-09-21T23:51:24;102539.91;;;14.22;74.89
31062;BME280;17724;53.546;9.974;2022-09-21T23:55:25;102546.53;;;14.33;74.91